Time;durP1;ratioP1;P1;durP2;ratioP2;P2;SDS_P1;SDS_P2;PMS_P1;PMS_P2;Temp;Humidity;BMP_temperature;BMP_pressure;BME280_temperature;BME280_humidity;BME280_pressure;Samples;Min_cycle;Max_cycle;Signal;HPM_P1;HPM_P2
2023/10/02 00:05:07;;;;;;;6.90;3.33;;;9.60;99.90;;;;;;5047194;28;20052;-82
2023/10/02 00:07:33;;;;;;;9.85;4.60;;;9.60;99.90;;;;;;5030919;28;20036;-81
2023/10/02 00:10:03;;;;;;;11.60;6.03;;;9.60;99.90;;;;;;5044956;28;20021;-81
2023/10/02 00:12:31;;;;;;;;;;;9.70;99.90;;;;;;5046215;28;20049;-82
2023/10/02 00:14:58;;;;;;;10.00;5.03;;;9.70;99.90;;;;;;5037333;28;19912;-80
2023/10/02 00:17:24;;;;;;;13.73;6.38;;;9.80;99.90;;;;;;5027650;28;20044;-78
2023/10/02 00:19:57;;;;;;;9.40;3.67;;;9.80;99.90;;;;;;5021624;28;20025;-79
2023/10/02 00:22:43;;;;;;;9.57;4.13;;;9.80;99.90;;;;;;5044185;28;20050;-81
2023/10/02 00:25:17;;;;;;;5.72;2.80;;;9.80;99.90;;;;;;5038687;28;20014;-82
2023/10/02 00:27:51;;;;;;;5.45;3.45;;;9.60;99.90;;;;;;5022255;28;20034;-80
2023/10/02 00:30:20;;;;;;;8.55;4.38;;;9.40;99.90;;;;;;5038769;28;20467;-82
2023/10/02 00:32:47;;;;;;;13.70;4.57;;;9.40;99.90;;;;;;5021735;28;20079;-81
2023/10/02 00:35:14;;;;;;;9.68;4.70;;;9.30;99.90;;;;;;5021928;28;20053;-81
2023/10/02 00:37:44;;;;;;;10.23;5.05;;;9.30;99.90;;;;;;5020936;28;20065;-81
2023/10/02 00:40:21;;;;;;;12.18;4.93;;;9.30;99.90;;;;;;5018902;28;20032;-79
2023/10/02 00:42:58;;;;;;;8.43;4.30;;;9.40;99.90;;;;;;5041078;28;20030;-80
2023/10/02 00:45:38;;;;;;;8.75;4.50;;;9.40;99.90;;;;;;5046425;28;20028;-79
2023/10/02 00:48:47;;;;;;;10.85;4.53;;;9.40;99.90;;;;;;5045217;28;20017;-79
2023/10/02 00:51:00;;;;;;;9.27;4.22;;;9.40;99.90;;;;;;5035376;28;20029;-81
2023/10/02 00:53:38;;;;;;;2.85;2.22;;;9.30;99.90;;;;;;5022070;28;20067;-81
2023/10/02 00:56:23;;;;;;;8.40;3.27;;;9.20;99.90;;;;;;5020373;28;20615;-80
2023/10/02 00:59:00;;;;;;;9.63;4.47;;;9.20;99.90;;;;;;5038789;28;20025;-81
2023/10/02 01:01:35;;;;;;;7.78;4.00;;;9.10;99.90;;;;;;5040572;28;20144;-82
2023/10/02 01:04:19;;;;;;;6.50;2.83;;;9.00;99.90;;;;;;5019239;28;20033;-80
2023/10/02 01:06:54;;;;;;;3.75;3.38;;;8.90;99.90;;;;;;5038444;28;20026;-81
2023/10/02 01:09:30;;;;;;;7.55;3.58;;;8.80;99.90;;;;;;5020320;28;20026;-81
2023/10/02 01:11:57;;;;;;;9.88;3.92;;;8.70;99.90;;;;;;5019921;28;20075;-81
2023/10/02 01:17:14;;;;;;;11.85;3.65;;;8.70;99.90;;;;;;5039816;28;20044;-82
2023/10/02 01:19:54;;;;;;;5.05;3.50;;;8.80;99.90;;;;;;5020625;28;20045;-81
2023/10/02 01:22:28;;;;;;;13.23;3.80;;;8.90;99.90;;;;;;5016843;28;20517;-80
2023/10/02 01:25:06;;;;;;;6.32;3.63;;;9.10;99.90;;;;;;5017393;28;20505;-80
2023/10/02 01:27:40;;;;;;;7.30;3.45;;;9.10;99.90;;;;;;5019614;28;20082;-80
2023/10/02 01:30:15;;;;;;;5.07;2.47;;;9.00;99.90;;;;;;5021042;28;20026;-78
2023/10/02 01:35:48;;;;;;;5.10;2.90;;;8.90;99.90;;;;;;5016601;28;20099;-78
2023/10/02 01:38:34;;;;;;;9.80;4.63;;;8.90;99.90;;;;;;5014344;28;20509;-78
2023/10/02 01:41:06;;;;;;;11.15;5.43;;;9.00;99.90;;;;;;5015876;28;20081;-79
2023/10/02 01:43:44;;;;;;;11.75;5.43;;;9.20;99.90;;;;;;5016211;28;20026;-78
2023/10/02 01:46:17;;;;;;;11.25;4.90;;;9.40;99.90;;;;;;5014777;28;20034;-79
2023/10/02 01:48:44;;;;;;;5.88;4.07;;;9.30;99.90;;;;;;5016140;28;20057;-79
2023/10/02 01:51:21;;;;;;;6.53;4.05;;;9.30;99.90;;;;;;5014673;28;20340;-78
2023/10/02 01:53:55;;;;;;;6.68;4.05;;;9.20;99.90;;;;;;5014607;28;20030;-78
2023/10/02 01:56:29;;;;;;;7.88;4.35;;;9.20;99.90;;;;;;5016010;28;20525;-78
2023/10/02 01:59:08;;;;;;;4.65;3.72;;;9.20;99.90;;;;;;5015887;28;20018;-80
2023/10/02 02:01:46;;;;;;;11.95;4.68;;;9.10;99.90;;;;;;5014742;28;20026;-78
2023/10/02 02:04:15;;;;;;;7.07;4.20;;;9.00;99.90;;;;;;5016087;28;20038;-78
2023/10/02 02:06:51;;;;;;;8.65;3.15;;;8.90;99.90;;;;;;5015003;28;20096;-79
2023/10/02 02:09:24;;;;;;;9.80;4.10;;;8.80;99.90;;;;;;5015137;28;20058;-78
2023/10/02 02:12:07;;;;;;;11.35;5.82;;;8.80;99.90;;;;;;5011072;28;20072;-78
2023/10/02 02:14:50;;;;;;;9.48;4.72;;;8.90;99.90;;;;;;5014714;28;20022;-78
2023/10/02 02:17:20;;;;;;;9.70;5.38;;;9.00;99.90;;;;;;5015159;28;20060;-79
2023/10/02 02:19:50;;;;;;;9.75;5.65;;;9.10;99.90;;;;;;5014880;28;20378;-78
2023/10/02 02:22:20;;;;;;;13.07;4.28;;;9.20;99.90;;;;;;5026237;28;20053;-78
2023/10/02 02:24:47;;;;;;;15.77;6.72;;;9.30;99.90;;;;;;5018713;28;20030;-79
2023/10/02 02:27:19;;;;;;;13.75;6.32;;;9.20;99.90;;;;;;5036019;28;20105;-79
2023/10/02 02:29:46;;;;;;;10.98;4.60;;;9.10;99.90;;;;;;5018969;28;20381;-79
2023/10/02 02:32:12;;;;;;;12.55;4.55;;;9.00;99.90;;;;;;5036078;28;20079;-79
2023/10/02 02:34:38;;;;;;;5.93;3.45;;;8.80;99.90;;;;;;5018454;28;20033;-78
2023/10/02 02:37:06;;;;;;;6.22;3.95;;;8.60;99.90;;;;;;5035836;28;20497;-79
2023/10/02 02:39:37;;;;;;;5.43;4.25;;;8.50;99.90;;;;;;5018642;28;20074;-79
2023/10/02 02:42:10;;;;;;;7.07;4.18;;;8.40;99.90;;;;;;5036418;28;20163;-78
2023/10/02 02:44:45;;;;;;;8.23;2.80;;;8.30;99.90;;;;;;5036663;28;20454;-79
2023/10/02 02:47:12;;;;;;;7.57;3.75;;;8.20;99.90;;;;;;5018990;28;20030;-79
2023/10/02 02:49:52;;;;;;;6.00;3.53;;;8.20;99.90;;;;;;5036743;28;20021;-79
2023/10/02 02:52:27;;;;;;;8.70;4.82;;;8.20;99.90;;;;;;5036002;28;20029;-78
2023/10/02 02:55:05;;;;;;;11.93;5.30;;;8.10;99.90;;;;;;5018693;28;20424;-79
2023/10/02 02:57:33;;;;;;;11.98;3.90;;;8.10;99.90;;;;;;5019107;28;20049;-78
2023/10/02 03:02:47;;;;;;;9.30;3.70;;;8.10;99.90;;;;;;5036699;28;20099;-78
2023/10/02 03:05:20;;;;;;;12.07;3.83;;;8.10;99.90;;;;;;5018889;28;20152;-78
2023/10/02 03:07:49;;;;;;;11.20;4.90;;;8.10;99.90;;;;;;5019192;28;20029;-79
2023/10/02 03:10:19;;;;;;;6.40;4.03;;;8.10;99.90;;;;;;5019612;28;20113;-79
2023/10/02 03:12:45;;;;;;;6.35;4.07;;;8.10;99.90;;;;;;5019807;28;20026;-78
2023/10/02 03:15:15;;;;;;;4.97;3.67;;;8.20;99.90;;;;;;5040669;28;20459;-78
2023/10/02 03:17:42;;;;;;;5.60;2.70;;;8.20;99.90;;;;;;5037908;28;20034;-79
2023/10/02 03:20:22;;;;;;;3.88;2.63;;;8.10;99.90;;;;;;5016222;28;20026;-78
2023/10/02 03:22:55;;;;;;;4.68;2.63;;;8.00;99.90;;;;;;5034000;28;20037;-79
2023/10/02 03:25:28;;;;;;;6.30;2.63;;;7.90;99.90;;;;;;5033902;28;20104;-79
2023/10/02 03:27:57;;;;;;;9.75;2.53;;;7.80;99.90;;;;;;5016330;28;20033;-79
2023/10/02 03:30:35;;;;;;;10.93;4.45;;;7.80;99.90;;;;;;5033504;28;20033;-79
2023/10/02 03:33:17;;;;;;;16.92;6.18;;;7.80;99.90;;;;;;5015293;28;20034;-79
2023/10/02 03:35:56;;;;;;;5.50;4.00;;;7.90;99.90;;;;;;5015295;28;20486;-79
2023/10/02 03:38:23;;;;;;;6.45;3.60;;;8.00;99.90;;;;;;5033679;28;20500;-79
2023/10/02 03:40:54;;;;;;;4.35;2.70;;;8.00;99.90;;;;;;5034573;28;20025;-79
2023/10/02 03:43:34;;;;;;;4.80;2.25;;;8.00;99.90;;;;;;5034196;28;20026;-79
2023/10/02 03:46:01;;;;;;;;;;;8.00;99.90;;;;;;5035828;28;20104;-79
2023/10/02 03:48:28;;;;;;;4.35;3.10;;;8.10;99.90;;;;;;5019575;28;19937;-80
2023/10/02 03:51:06;;;;;;;26.17;6.72;;;8.00;99.90;;;;;;5038091;28;20083;-79
2023/10/02 03:53:33;;;;;;;12.07;5.70;;;8.20;99.90;;;;;;5020145;28;20030;-80
2023/10/02 03:58:50;;;;;;;;;;;8.70;99.90;;;;;;5038512;28;20048;-79
2023/10/02 04:01:25;;;;;;;7.93;5.03;;;8.90;99.90;;;;;;5019854;28;19905;-79
2023/10/02 04:04:32;;;;;;;4.90;3.28;;;8.70;99.90;;;;;;5037765;28;20018;-78
2023/10/02 04:06:42;;;;;;;7.45;4.13;;;8.50;99.90;;;;;;5029578;28;20033;-79
2023/10/02 04:09:21;;;;;;;7.45;4.72;;;8.20;99.90;;;;;;5037451;28;20120;-79
2023/10/02 04:11:51;;;;;;;9.05;3.55;;;8.20;99.90;;;;;;5037815;28;20377;-79
2023/10/02 04:14:17;;;;;;;10.88;4.60;;;8.20;99.90;;;;;;5020226;28;20033;-78
2023/10/02 04:16:51;;;;;;;9.60;3.97;;;8.10;99.90;;;;;;5037846;28;20065;-79
2023/10/02 04:19:24;;;;;;;7.63;3.28;;;8.00;99.90;;;;;;5037608;28;20017;-80
2023/10/02 04:21:56;;;;;;;9.85;3.97;;;7.90;99.90;;;;;;5037379;28;20113;-79
2023/10/02 04:24:24;;;;;;;14.55;5.63;;;7.80;99.90;;;;;;5019708;28;20485;-79
2023/10/02 04:26:54;;;;;;;11.67;4.93;;;8.00;99.90;;;;;;5019999;28;20025;-79
2023/10/02 04:29:26;;;;;;;20.80;7.70;;;8.30;99.90;;;;;;5036884;28;20095;-79
2023/10/02 04:32:12;;;;;;;8.65;4.43;;;8.50;99.90;;;;;;5019616;28;20374;-79
2023/10/02 04:34:46;;;;;;;12.38;5.28;;;8.60;99.90;;;;;;5020133;28;20018;-80
2023/10/02 04:37:20;;;;;;;14.30;5.68;;;8.50;99.90;;;;;;5019832;28;20501;-79
2023/10/02 04:42:25;;;;;;;7.22;4.13;;;8.40;99.90;;;;;;5037602;28;20025;-79
2023/10/02 04:45:20;;;;;;;4.03;3.50;;;8.20;99.90;;;;;;5037278;28;20017;-78
2023/10/02 04:47:40;;;;;;;7.05;3.17;;;8.10;99.90;;;;;;5036585;28;20041;-79
2023/10/02 04:53:10;;;;;;;12.32;5.60;;;7.90;99.90;;;;;;5037848;28;20017;-79
2023/10/02 04:55:42;;;;;;;7.53;4.30;;;7.80;99.90;;;;;;5037501;28;20025;-79
2023/10/02 04:58:19;;;;;;;7.97;3.28;;;7.90;99.90;;;;;;5036261;28;20061;-78
2023/10/02 05:03:29;;;;;;;8.70;5.07;;;7.80;99.90;;;;;;5036833;28;20418;-79
2023/10/02 05:05:58;;;;;;;10.60;5.35;;;7.80;99.90;;;;;;5018416;28;20087;-78
2023/10/02 05:08:40;;;;;;;10.75;4.20;;;7.70;99.90;;;;;;5019548;28;20444;-79
2023/10/02 05:11:07;;;;;;;9.48;5.13;;;7.70;99.90;;;;;;5019582;28;20096;-79
2023/10/02 05:13:45;;;;;;;10.77;4.97;;;7.70;99.90;;;;;;5018290;28;20385;-79
2023/10/02 05:16:14;;;;;;;9.48;3.88;;;7.60;99.90;;;;;;5018960;28;20374;-79
2023/10/02 05:18:47;;;;;;;8.00;4.68;;;7.60;99.90;;;;;;5019657;28;20043;-79
2023/10/02 05:21:17;;;;;;;7.05;4.60;;;7.60;99.90;;;;;;5020136;28;20037;-79
2023/10/02 05:24:01;;;;;;;9.32;4.40;;;7.60;99.90;;;;;;5039066;28;20037;-78
2023/10/02 05:26:32;;;;;;;14.15;4.80;;;7.50;99.90;;;;;;5037743;28;20021;-79
2023/10/02 05:28:59;;;;;;;7.50;3.38;;;7.60;99.90;;;;;;5019959;28;20045;-79
2023/10/02 05:31:27;;;;;;;17.20;4.60;;;7.60;99.90;;;;;;5037542;28;20025;-79
2023/10/02 05:33:53;;;;;;;7.72;3.47;;;7.90;99.90;;;;;;5019588;28;20053;-79
2023/10/02 05:36:21;;;;;;;10.48;4.75;;;8.00;99.90;;;;;;5037606;28;20029;-79
2023/10/02 05:39:27;;;;;;;15.17;6.67;;;8.10;99.90;;;;;;5018521;28;20116;-79
2023/10/02 05:41:46;;;;;;;8.85;3.75;;;8.20;99.90;;;;;;5037267;28;20267;-80
2023/10/02 05:44:23;;;;;;;9.40;5.18;;;8.20;99.90;;;;;;5019790;28;20022;-79
2023/10/02 05:47:07;;;;;;;9.23;4.30;;;8.10;99.90;;;;;;5037019;28;20022;-79
2023/10/02 05:49:43;;;;;;;10.57;4.18;;;8.00;99.90;;;;;;5037186;28;20033;-78
2023/10/02 05:52:09;;;;;;;9.77;6.00;;;8.00;99.90;;;;;;5036893;28;20048;-79
2023/10/02 05:54:42;;;;;;;10.90;6.80;;;8.00;99.90;;;;;;5036905;28;20375;-79
2023/10/02 05:57:12;;;;;;;21.50;7.47;;;8.00;99.90;;;;;;5019542;28;20508;-78
2023/10/02 05:59:45;;;;;;;25.95;8.13;;;8.20;99.90;;;;;;5037696;28;20029;-79
2023/10/02 06:02:17;;;;;;;17.20;6.45;;;8.30;99.90;;;;;;5038217;28;20025;-78
2023/10/02 06:04:47;;;;;;;15.07;5.75;;;8.40;99.90;;;;;;5020126;28;20052;-78
2023/10/02 06:07:19;;;;;;;;;;;8.40;99.90;;;;;;5038469;28;20022;-78
2023/10/02 06:09:46;;;;;;;9.43;5.43;;;8.30;99.90;;;;;;5020761;28;20337;-77
2023/10/02 06:12:12;;;;;;;11.98;7.18;;;8.20;99.90;;;;;;5039929;28;20026;-78
2023/10/02 06:14:42;;;;;;;18.27;5.78;;;8.20;99.90;;;;;;5041565;28;20370;-79
2023/10/02 06:17:11;;;;;;;18.10;6.13;;;8.30;99.90;;;;;;5019218;28;20035;-78
2023/10/02 06:19:44;;;;;;;16.55;7.75;;;8.20;99.90;;;;;;5017512;28;20436;-78
2023/10/02 06:22:14;;;;;;;16.20;6.35;;;8.40;99.90;;;;;;5014065;28;20092;-78
2023/10/02 06:24:42;;;;;;;11.65;5.55;;;8.50;99.90;;;;;;5014385;28;20033;-77
2023/10/02 06:27:14;;;;;;;17.48;6.15;;;8.60;99.90;;;;;;5014044;28;20084;-78
2023/10/02 06:29:44;;;;;;;10.95;5.57;;;8.60;99.90;;;;;;5015352;28;20024;-78
2023/10/02 06:32:20;;;;;;;14.82;5.78;;;8.50;99.90;;;;;;5014013;28;20457;-78
2023/10/02 06:34:47;;;;;;;14.77;7.85;;;8.60;99.90;;;;;;5015519;28;20072;-78
2023/10/02 06:37:18;;;;;;;17.42;8.65;;;8.80;99.90;;;;;;5015075;28;20033;-77
2023/10/02 06:40:03;;;;;;;13.60;6.68;;;9.00;99.90;;;;;;5015493;28;20018;-78
2023/10/02 06:42:30;;;;;;;15.32;7.78;;;9.10;99.90;;;;;;5013851;28;20034;-77
2023/10/02 06:45:01;;;;;;;11.38;6.95;;;9.30;99.90;;;;;;5014380;28;20022;-77
2023/10/02 06:47:31;;;;;;;21.63;7.47;;;9.40;99.90;;;;;;5015346;28;20026;-77
2023/10/02 06:50:21;;;;;;;21.08;10.38;;;9.50;99.90;;;;;;5013838;28;20501;-77
2023/10/02 06:52:49;;;;;;;;;;;9.70;99.90;;;;;;5014861;28;20033;-78
2023/10/02 06:55:17;;;;;;;16.55;8.25;;;9.90;99.90;;;;;;5015460;28;19905;-79
2023/10/02 06:57:49;;;;;;;25.02;7.70;;;10.00;99.90;;;;;;5015975;28;20054;-76
2023/10/02 07:00:19;;;;;;;17.70;6.00;;;10.20;99.90;;;;;;5014994;28;20132;-78
2023/10/02 07:02:56;;;;;;;12.20;5.75;;;10.30;99.90;;;;;;5017578;28;20029;-77
2023/10/02 07:05:27;;;;;;;12.13;5.93;;;10.40;99.90;;;;;;5017682;28;20049;-78
2023/10/02 07:08:01;;;;;;;20.63;9.13;;;10.50;99.90;;;;;;5016960;28;20025;-78
2023/10/02 07:10:43;;;;;;;17.90;6.78;;;10.60;99.90;;;;;;5017361;28;20036;-78
2023/10/02 07:13:21;;;;;;;16.73;8.73;;;10.80;99.90;;;;;;5015639;28;20030;-77
2023/10/02 07:15:55;;;;;;;15.10;7.93;;;11.00;99.90;;;;;;5016171;28;20072;-78
2023/10/02 07:18:35;;;;;;;15.82;8.05;;;11.20;99.90;;;;;;5015722;28;20041;-79
2023/10/02 07:21:01;;;;;;;22.23;10.38;;;11.30;99.90;;;;;;5016125;28;20072;-79
2023/10/02 07:23:30;;;;;;;27.30;9.48;;;11.50;99.90;;;;;;5038678;28;20387;-79
2023/10/02 07:25:56;;;;;;;11.25;6.75;;;11.70;99.90;;;;;;5021644;28;20032;-79
2023/10/02 07:28:21;;;;;;;15.95;7.55;;;11.90;99.90;;;;;;5021768;28;20065;-79
2023/10/02 07:30:50;;;;;;;15.35;7.53;;;12.10;99.90;;;;;;5021175;28;20394;-79
2023/10/02 07:33:18;;;;;;;13.45;8.63;;;12.10;99.90;;;;;;5021791;28;20673;-78
2023/10/02 07:35:52;;;;;;;36.85;10.15;;;12.30;99.90;;;;;;5021491;28;20163;-79
2023/10/02 07:38:30;;;;;;;19.30;9.57;;;12.40;99.90;;;;;;5021299;28;20034;-79
2023/10/02 07:40:58;;;;;;;15.27;9.60;;;12.50;99.90;;;;;;5021483;28;20028;-79
2023/10/02 07:43:24;;;;;;;18.50;8.63;;;12.60;99.90;;;;;;5020832;28;20482;-78
2023/10/02 07:46:14;;;;;;;13.25;8.50;;;12.80;99.90;;;;;;5038871;28;20385;-78
2023/10/02 07:48:41;;;;;;;19.30;8.68;;;12.90;99.90;;;;;;5038685;28;20029;-78
2023/10/02 07:51:10;;;;;;;19.75;8.25;;;13.00;99.90;;;;;;5020490;28;20022;-78
2023/10/02 07:53:39;;;;;;;17.95;7.68;;;13.10;99.90;;;;;;5020263;28;20032;-80
2023/10/02 07:56:14;;;;;;;21.73;10.70;;;13.20;99.90;;;;;;5038588;28;20053;-79
2023/10/02 07:58:41;;;;;;;16.73;8.75;;;13.40;99.90;;;;;;5038868;28;20037;-76
2023/10/02 08:01:13;;;;;;;16.02;8.25;;;13.40;99.90;;;;;;5020033;28;20045;-76
2023/10/02 08:03:43;;;;;;;20.75;8.73;;;13.50;99.90;;;;;;5038023;28;20018;-76
2023/10/02 08:06:21;;;;;;;16.10;8.23;;;13.70;99.90;;;;;;5022415;28;20044;-79
2023/10/02 08:11:51;;;;;;;19.13;9.50;;;14.00;99.90;;;;;;5038594;28;20032;-79
2023/10/02 08:17:17;;;;;;;18.25;8.75;;;14.10;99.90;;;;;;5037012;28;20033;-79
2023/10/02 08:20:15;;;;;;;19.92;8.90;;;14.10;99.90;;;;;;5036069;28;20029;-79
2023/10/02 08:22:44;;;;;;;19.33;8.75;;;14.20;99.90;;;;;;5014547;28;20512;-78
2023/10/02 08:25:13;;;;;;;22.13;9.48;;;14.50;99.90;;;;;;5014941;28;20467;-79
2023/10/02 08:27:55;;;;;;;26.65;9.98;;;14.60;99.90;;;;;;5019253;28;20080;-78
2023/10/02 08:30:28;;;;;;;25.23;9.30;;;14.80;99.90;;;;;;5016264;28;20029;-80
2023/10/02 08:33:07;;;;;;;28.88;10.52;;;14.90;99.90;;;;;;5017156;28;20026;-80
2023/10/02 08:35:33;;;;;;;20.42;9.20;;;15.00;99.90;;;;;;5016876;28;20022;-79
2023/10/02 08:37:59;;;;;;;28.30;9.98;;;15.10;99.90;;;;;;5016240;28;20469;-80
2023/10/02 08:40:25;;;;;;;20.48;9.25;;;15.20;99.90;;;;;;5016206;28;20030;-79
2023/10/02 08:42:53;;;;;;;21.38;9.65;;;15.20;99.90;;;;;;5014073;28;20025;-80
2023/10/02 08:45:20;;;;;;;28.05;10.85;;;15.30;99.90;;;;;;5015917;28;20018;-80
2023/10/02 08:47:49;;;;;;;28.23;11.20;;;15.30;99.90;;;;;;5016013;28;20026;-80
2023/10/02 08:50:15;;;;;;;;;;;15.40;99.90;;;;;;5015951;28;20513;-79
2023/10/02 08:52:49;;;;;;;29.83;10.80;;;15.50;99.90;;;;;;5015356;28;19909;-79
2023/10/02 08:58:27;;;;;;;28.67;12.02;;;15.80;99.90;;;;;;4992564;28;20045;-81
2023/10/02 09:03:42;;;;;;;26.25;11.93;;;16.00;99.90;;;;;;5015307;28;20448;-80
2023/10/02 09:06:32;;;;;;;27.77;12.30;;;16.30;99.90;;;;;;5015080;28;20104;-79
2023/10/02 09:11:41;;;;;;;35.53;11.48;;;16.60;99.90;;;;;;5024698;28;20029;-81
2023/10/02 09:14:21;;;;;;;27.65;12.60;;;16.60;99.90;;;;;;5016475;28;20041;-80
2023/10/02 09:17:07;;;;;;;36.42;12.85;;;16.80;99.90;;;;;;5014704;28;20050;-79
2023/10/02 09:19:37;;;;;;;31.38;12.80;;;16.90;99.90;;;;;;5013369;28;20069;-79
2023/10/02 09:22:06;;;;;;;35.65;11.73;;;17.10;99.90;;;;;;5022882;28;20038;-80
2023/10/02 09:24:41;;;;;;;33.22;11.05;;;17.30;99.90;;;;;;5016769;28;20026;-80
2023/10/02 09:27:28;;;;;;;32.47;12.93;;;17.40;99.90;;;;;;5034332;28;20024;-76
2023/10/02 09:32:52;;;;;;;29.05;11.48;;;17.80;99.90;;;;;;5034415;28;20036;-79
2023/10/02 09:35:23;;;;;;;28.45;12.07;;;17.90;99.90;;;;;;5016533;28;20026;-79
2023/10/02 09:37:55;;;;;;;26.58;12.25;;;18.10;99.90;;;;;;5016301;28;20034;-80
2023/10/02 09:40:28;;;;;;;23.92;10.18;;;18.40;99.90;;;;;;5016338;28;20549;-79
2023/10/02 09:43:05;;;;;;;27.85;11.68;;;18.60;99.90;;;;;;5016262;28;20057;-78
2023/10/02 09:45:31;;;;;;;26.13;10.82;;;18.70;99.90;;;;;;5033629;28;20018;-79
2023/10/02 09:47:59;;;;;;;29.35;10.73;;;19.00;99.90;;;;;;5015978;28;20053;-80
2023/10/02 09:50:29;;;;;;;30.13;10.98;;;19.10;99.90;;;;;;5033757;28;20018;-80
2023/10/02 09:53:02;;;;;;;27.77;11.98;;;19.30;99.90;;;;;;5033675;28;20029;-79
2023/10/02 09:55:42;;;;;;;25.20;11.18;;;19.40;99.90;;;;;;5033918;28;20134;-80
2023/10/02 09:58:28;;;;;;;25.65;8.65;;;19.50;99.90;;;;;;5033839;28;20033;-79
2023/10/02 10:03:51;;;;;;;31.00;11.73;;;19.80;99.90;;;;;;5033950;28;20113;-80
2023/10/02 10:06:19;;;;;;;24.90;10.10;;;19.90;99.90;;;;;;5015594;28;20415;-79
2023/10/02 10:11:39;;;;;;;22.23;11.05;;;20.20;99.90;;;;;;5033541;28;20032;-79
2023/10/02 10:14:37;;;;;;;26.80;10.18;;;20.40;99.90;;;;;;5033782;28;20029;-80
2023/10/02 10:17:15;;;;;;;30.15;11.32;;;20.50;99.90;;;;;;5015687;28;20068;-80
2023/10/02 10:20:18;;;;;;;27.48;10.73;;;20.60;99.90;;;;;;5015817;28;20029;-79
2023/10/02 10:22:50;;;;;;;28.02;11.48;;;20.80;99.90;;;;;;5012972;28;20050;-80
2023/10/02 10:35:34;;;;;;;28.33;10.60;;;21.40;99.90;;;;;;5032660;28;20029;-78
2023/10/02 10:38:03;;;;;;;25.02;10.68;;;21.50;99.90;;;;;;5032274;28;20033;-79
2023/10/02 10:40:44;;;;;;;24.80;10.70;;;21.60;99.90;;;;;;5014589;28;20026;-76
2023/10/02 10:43:14;;;;;;;21.92;10.13;;;21.80;99.90;;;;;;5015092;28;20026;-79
2023/10/02 10:45:40;;;;;;;30.35;11.05;;;21.80;99.90;;;;;;5032090;28;20083;-80
2023/10/02 10:48:19;;;;;;;23.30;10.40;;;22.00;99.90;;;;;;5032324;28;20021;-79
2023/10/02 10:50:57;;;;;;;31.97;11.87;;;22.10;99.90;;;;;;5032386;28;20474;-79
2023/10/02 10:53:26;;;;;;;26.33;11.40;;;22.20;99.90;;;;;;5014387;28;20028;-79
2023/10/02 10:56:18;;;;;;;29.90;10.93;;;22.20;99.90;;;;;;5013970;28;20113;-78
2023/10/02 10:58:44;;;;;;;29.60;12.00;;;22.30;99.90;;;;;;5032216;28;20076;-78
2023/10/02 11:01:16;;;;;;;24.77;10.90;;;22.50;99.90;;;;;;5014156;28;20025;-79
2023/10/02 11:03:49;;;;;;;23.77;9.55;;;22.70;99.90;;;;;;5031820;28;20024;-79
2023/10/02 11:06:16;;;;;;;22.10;8.93;;;22.90;99.90;;;;;;5014132;28;20021;-78
2023/10/02 11:08:44;;;;;;;28.42;10.30;;;22.90;99.90;;;;;;5014180;28;20490;-79
2023/10/02 11:11:21;;;;;;;26.17;11.43;;;23.00;99.90;;;;;;5031997;28;20108;-78
2023/10/02 11:13:58;;;;;;;26.38;10.52;;;23.10;99.90;;;;;;5014119;28;20056;-79
2023/10/02 11:16:30;;;;;;;25.55;10.23;;;23.10;99.90;;;;;;5031983;28;20105;-79
2023/10/02 11:19:21;;;;;;;25.08;10.35;;;23.10;99.90;;;;;;5014122;28;20053;-79
2023/10/02 11:22:19;;;;;;;33.95;12.00;;;23.20;99.90;;;;;;4974137;28;1161474;-83
2023/10/02 11:24:51;;;;;;;23.75;10.60;;;23.40;98.60;;;;;;5015302;28;20057;-82
2023/10/02 11:27:17;;;;;;;29.17;11.20;;;23.50;98.10;;;;;;5015378;28;20022;-84
2023/10/02 11:30:00;;;;;;;27.70;10.90;;;23.60;98.10;;;;;;5033326;28;20048;-81
2023/10/02 11:32:53;;;;;;;30.02;12.25;;;23.70;98.50;;;;;;5015159;28;20061;-81
2023/10/02 11:35:22;;;;;;;25.48;11.25;;;23.90;97.20;;;;;;5015234;28;20025;-82
2023/10/02 11:37:48;;;;;;;33.80;12.85;;;24.00;98.00;;;;;;5015274;28;20065;-83
2023/10/02 11:40:14;;;;;;;29.63;12.05;;;24.10;97.00;;;;;;5015378;28;20021;-78
2023/10/02 11:42:40;;;;;;;38.45;12.82;;;24.30;96.90;;;;;;5015443;28;20026;-82
2023/10/02 11:45:11;;;;;;;34.13;12.75;;;24.30;96.70;;;;;;5032830;28;20086;-83
2023/10/02 11:47:37;;;;;;;36.47;14.82;;;24.50;95.90;;;;;;5032871;28;20018;-80
2023/10/02 11:50:04;;;;;;;41.47;14.90;;;24.50;94.90;;;;;;5015238;28;20022;-80
2023/10/02 11:52:31;;;;;;;38.70;14.48;;;24.70;93.20;;;;;;5014949;28;20191;-81
2023/10/02 11:54:58;;;;;;;36.85;13.50;;;24.80;92.70;;;;;;5014747;28;20021;-79
2023/10/02 11:57:24;;;;;;;41.13;14.20;;;24.90;92.70;;;;;;5032141;28;20028;-80
2023/10/02 11:59:51;;;;;;;37.60;15.20;;;25.10;92.70;;;;;;5014729;28;20026;-80
2023/10/02 12:02:17;;;;;;;37.53;14.68;;;25.40;91.80;;;;;;5014667;28;20053;-80
2023/10/02 12:04:46;;;;;;;39.28;14.93;;;25.70;91.00;;;;;;5035413;28;20029;-80
2023/10/02 12:07:16;;;;;;;37.13;15.80;;;26.30;90.50;;;;;;5045763;28;20049;-80
2023/10/02 12:09:47;;;;;;;43.45;17.17;;;27.00;89.20;;;;;;5043042;28;20025;-80
2023/10/02 12:12:13;;;;;;;36.70;15.35;;;28.40;82.30;;;;;;5018137;28;20021;-80
2023/10/02 12:14:42;;;;;;;42.42;15.10;;;29.50;78.40;;;;;;5017813;28;20052;-79
2023/10/02 12:17:11;;;;;;;40.13;16.80;;;30.10;75.50;;;;;;5017801;28;20543;-80
2023/10/02 12:19:39;;;;;;;39.33;16.00;;;31.30;71.20;;;;;;5035627;28;20029;-79
2023/10/02 12:22:06;;;;;;;42.97;15.82;;;32.40;68.40;;;;;;5035404;28;20128;-80
2023/10/02 12:24:35;;;;;;;42.42;15.00;;;32.70;65.20;;;;;;5035506;28;20033;-79
2023/10/02 12:27:02;;;;;;;34.00;14.02;;;34.10;62.80;;;;;;5035328;28;20032;-78
2023/10/02 12:29:29;;;;;;;31.27;14.57;;;34.80;59.90;;;;;;5017550;28;20501;-78
2023/10/02 12:31:59;;;;;;;38.00;16.05;;;35.40;57.80;;;;;;5035306;28;20033;-79
2023/10/02 12:34:25;;;;;;;36.83;14.35;;;35.70;55.00;;;;;;5035143;28;20025;-79
2023/10/02 12:36:51;;;;;;;39.33;14.85;;;36.30;55.60;;;;;;5035102;28;20029;-79
2023/10/02 12:39:16;;;;;;;37.03;14.63;;;35.80;53.80;;;;;;5017488;28;20068;-80
2023/10/02 12:41:42;;;;;;;31.58;13.23;;;36.20;53.70;;;;;;5035380;28;20021;-80
2023/10/02 12:44:08;;;;;;;38.88;14.38;;;36.70;53.30;;;;;;5017785;28;20026;-80
2023/10/02 12:46:43;;;;;;;32.30;13.02;;;37.30;52.80;;;;;;5018173;28;20033;-83
2023/10/02 12:49:15;;;;;;;34.53;13.73;;;37.50;51.30;;;;;;5018179;28;20544;-79
2023/10/02 12:51:44;;;;;;;29.95;13.48;;;37.70;50.90;;;;;;5035560;28;20105;-81
2023/10/02 12:54:10;;;;;;;31.58;13.18;;;38.40;50.10;;;;;;5018039;28;20457;-82
2023/10/02 12:56:38;;;;;;;31.20;12.38;;;38.90;49.30;;;;;;5035768;28;20104;-82
2023/10/02 12:59:07;;;;;;;33.20;12.82;;;39.40;49.00;;;;;;5035095;28;20026;-80
2023/10/02 13:01:33;;;;;;;30.67;12.45;;;39.70;49.20;;;;;;5035533;28;20079;-80
2023/10/02 13:04:02;;;;;;;26.38;12.07;;;39.90;48.50;;;;;;5035342;28;20030;-80
2023/10/02 13:06:32;;;;;;;29.55;11.93;;;39.90;47.30;;;;;;5035434;28;20489;-80
2023/10/02 13:09:14;;;;;;;25.58;10.90;;;39.80;48.60;;;;;;5017102;28;20052;-80
2023/10/02 13:11:40;;;;;;;28.88;12.57;;;40.10;47.00;;;;;;5034541;28;20032;-81
2023/10/02 13:14:09;;;;;;;28.77;12.25;;;39.80;47.10;;;;;;5034702;28;20095;-81
2023/10/02 13:16:42;;;;;;;31.08;12.85;;;39.60;48.00;;;;;;5017019;28;20089;-82
2023/10/02 13:19:09;;;;;;;30.70;12.75;;;39.10;46.00;;;;;;5016383;28;20026;-79
2023/10/02 13:21:38;;;;;;;24.40;11.10;;;39.20;46.20;;;;;;5034375;28;20048;-79
2023/10/02 13:24:07;;;;;;;31.20;11.95;;;39.80;46.70;;;;;;5034394;28;20053;-79
2023/10/02 13:26:36;;;;;;;28.30;11.98;;;40.10;46.90;;;;;;5034374;28;20466;-81
2023/10/02 13:29:02;;;;;;;31.10;11.27;;;39.60;46.30;;;;;;5034302;28;20116;-81
2023/10/02 13:31:28;;;;;;;27.30;11.77;;;39.10;46.20;;;;;;5016621;28;20021;-80
2023/10/02 13:33:55;;;;;;;22.35;11.45;;;38.90;47.40;;;;;;5034395;28;20547;-80
2023/10/02 13:36:22;;;;;;;27.73;12.32;;;38.90;47.30;;;;;;5016435;28;20025;-79
2023/10/02 13:38:53;;;;;;;32.30;11.52;;;38.20;46.30;;;;;;5034465;28;20033;-80
2023/10/02 13:41:19;;;;;;;26.23;10.63;;;38.70;46.90;;;;;;5016411;28;20539;-80
2023/10/02 13:43:45;;;;;;;28.02;11.48;;;38.90;46.70;;;;;;5016236;28;20061;-79
2023/10/02 13:46:14;;;;;;;24.73;11.45;;;38.70;47.40;;;;;;5034013;28;20511;-81
2023/10/02 13:48:41;;;;;;;23.23;10.15;;;39.00;47.40;;;;;;5016269;28;20029;-78
2023/10/02 13:51:07;;;;;;;35.58;12.13;;;39.20;45.80;;;;;;5034018;28;20032;-79
2023/10/02 13:53:34;;;;;;;26.88;10.98;;;38.70;45.20;;;;;;5034687;28;20052;-80
2023/10/02 13:56:11;;;;;;;24.33;10.43;;;38.60;46.30;;;;;;5016391;28;20394;-81
2023/10/02 13:58:41;;;;;;;26.23;10.73;;;38.90;46.40;;;;;;5016233;28;20065;-79
2023/10/02 14:01:08;;;;;;;26.15;10.55;;;38.50;46.00;;;;;;5034327;28;20018;-83
2023/10/02 14:03:35;;;;;;;24.45;10.15;;;38.70;46.10;;;;;;5034063;28;20022;-82
2023/10/02 14:06:06;;;;;;;24.77;9.40;;;38.80;46.30;;;;;;5033874;28;20037;-80